Time;durP1;ratioP1;P1;durP2;ratioP2;P2;SDS_P1;SDS_P2;PMS_P1;PMS_P2;Temp;Humidity;BMP_temperature;BMP_pressure;BME280_temperature;BME280_humidity;BME280_pressure;Samples;Min_cycle;Max_cycle;Signal;HPM_P1;HPM_P2
2020/12/19 00:01:00;;;;;;;368.45;90.82;;;;;;;2.61;81.21;95745.59;4179330;28;20052;-77
2020/12/19 00:03:01;;;;;;;324.67;91.68;;;;;;;2.34;81.47;95742.78;4170551;28;20064;-78
2020/12/19 00:05:05;;;;;;;240.77;80.68;;;;;;;2.14;82.58;95741.28;4173799;28;20056;-69
2020/12/19 00:07:06;;;;;;;166.80;79.05;;;;;;;2.17;83.23;95745.44;4173660;28;20419;-70
2020/12/19 00:09:07;;;;;;;217.20;80.05;;;;;;;2.25;83.03;95738.09;4192792;28;20052;-69
2020/12/19 00:11:09;;;;;;;249.70;82.93;;;;;;;2.30;82.46;95740.44;4179057;28;20057;-69
2020/12/19 00:13:10;;;;;;;327.10;85.50;;;;;;;2.39;82.19;95739.97;4191589;28;20103;-69
2020/12/19 00:15:16;;;;;;;169.75;76.70;;;;;;;2.41;82.23;95735.50;4191151;28;20368;-69
2020/12/19 00:17:17;;;;;;;185.95;74.53;;;;;;;2.49;81.94;95742.88;4157459;28;20045;-69
2020/12/19 00:19:18;;;;;;;158.57;75.60;;;;;;;2.50;82.13;95739.38;4192932;28;20404;-69
2020/12/19 00:21:19;;;;;;;208.65;77.82;;;;;;;2.59;82.23;95738.84;4182842;28;20045;-72
2020/12/19 00:23:21;;;;;;;290.40;84.82;;;;;;;2.61;81.45;95737.84;4190202;28;20045;-69
2020/12/19 00:25:22;;;;;;;190.88;78.50;;;;;;;2.64;82.04;95748.00;4190014;28;20467;-68
2020/12/19 00:27:23;;;;;;;146.35;72.68;;;;;;;2.69;81.78;95742.63;4190826;28;20123;-72
2020/12/19 00:29:25;;;;;;;155.25;74.38;;;;;;;2.73;81.65;95740.66;4191844;28;20044;-71
2020/12/19 00:31:26;;;;;;;155.85;74.13;;;;;;;2.78;81.40;95743.84;4173923;28;20057;-73
2020/12/19 00:33:27;;;;;;;212.77;84.20;;;;;;;2.84;81.52;95739.16;4174482;28;20048;-71
2020/12/19 00:35:29;;;;;;;168.82;83.25;;;;;;;2.90;80.42;95747.47;4191091;28;20464;-69
2020/12/19 00:37:30;;;;;;;157.13;84.13;;;;;;;2.96;80.05;95747.97;4173627;28;20086;-69
2020/12/19 00:39:31;;;;;;;168.45;88.57;;;;;;;3.00;79.72;95744.28;4191026;28;20052;-69
2020/12/19 00:41:33;;;;;;;156.55;83.10;;;;;;;3.04;79.81;95744.97;4180536;28;20125;-68
2020/12/19 00:43:35;;;;;;;157.75;82.18;;;;;;;3.10;79.72;95752.38;4188930;28;20472;-69
2020/12/19 00:45:37;;;;;;;176.73;86.93;;;;;;;3.10;78.90;95754.09;4182063;28;20218;-70
2020/12/19 00:47:38;;;;;;;168.10;88.35;;;;;;;3.11;78.90;95754.03;4203749;28;20067;-68
2020/12/19 00:49:39;;;;;;;172.70;92.03;;;;;;;3.12;78.37;95753.13;4172243;28;20360;-71
2020/12/19 00:51:41;;;;;;;172.98;93.57;;;;;;;3.10;78.30;95749.78;4170456;28;20049;-69
2020/12/19 00:53:43;;;;;;;168.85;89.72;;;;;;;3.10;78.15;95751.53;4194262;28;20466;-68
2020/12/19 00:55:44;;;;;;;185.45;90.07;;;;;;;3.11;78.33;95746.25;4162490;28;20096;-69
2020/12/19 00:57:45;;;;;;;209.55;84.47;;;;;;;3.12;78.22;95741.91;4192560;28;20055;-68
2020/12/19 00:59:46;;;;;;;221.73;90.30;;;;;;;3.12;78.25;95747.09;4190571;28;20440;-68
2020/12/19 01:01:48;;;;;;;176.57;84.78;;;;;;;3.10;78.50;95742.03;4192576;28;20049;-69
2020/12/19 01:03:51;;;;;;;156.80;81.75;;;;;;;3.12;78.36;95745.38;4191301;28;20467;-69
2020/12/19 01:05:53;;;;;;;162.80;84.95;;;;;;;3.13;78.56;95734.06;4192674;28;20091;-70
2020/12/19 01:07:54;;;;;;;161.20;80.07;;;;;;;3.17;78.59;95740.75;4172098;28;20455;-69
2020/12/19 01:09:58;;;;;;;255.50;86.40;;;;;;;3.13;78.13;95734.06;4202404;28;20067;-70
2020/12/19 01:11:59;;;;;;;153.50;81.47;;;;;;;3.11;78.98;95733.31;4162357;28;20401;-70
2020/12/19 01:14:01;;;;;;;170.75;79.47;;;;;;;3.10;78.66;95729.06;4190622;28;20045;-69
2020/12/19 01:16:02;;;;;;;159.07;79.85;;;;;;;3.08;78.79;95731.75;4192329;28;20046;-70
2020/12/19 01:18:03;;;;;;;172.73;79.13;;;;;;;3.08;78.76;95726.56;4188275;28;20056;-69
2020/12/19 01:20:04;;;;;;;160.73;77.45;;;;;;;3.09;78.88;95724.81;4191050;28;20056;-68
2020/12/19 01:22:06;;;;;;;215.40;85.20;;;;;;;3.02;78.77;95726.91;4192173;28;20048;-69
2020/12/19 01:24:08;;;;;;;169.75;80.05;;;;;;;2.94;79.14;95723.94;4187855;28;20059;-68
2020/12/19 01:26:09;;;;;;;150.68;79.55;;;;;;;2.93;79.70;95721.44;4190969;28;20055;-69
2020/12/19 01:28:10;;;;;;;135.02;75.63;;;;;;;3.00;80.08;95718.41;4172570;28;20063;-68
2020/12/19 01:30:12;;;;;;;141.52;72.60;;;;;;;3.07;79.67;95714.53;4171713;28;20049;-68
2020/12/19 01:32:13;;;;;;;167.20;79.45;;;;;;;3.18;79.50;95711.31;4175162;28;20102;-69
2020/12/19 01:34:15;;;;;;;152.65;71.07;;;;;;;3.17;79.18;95711.44;4173198;28;20075;-70
2020/12/19 01:36:20;;;;;;;168.10;66.22;;;;;;;2.96;79.82;95716.09;4166728;28;20041;-69
2020/12/19 01:38:22;;;;;;;183.90;67.15;;;;;;;2.74;80.18;95714.72;4169155;28;20179;-69
2020/12/19 01:40:23;;;;;;;137.20;66.57;;;;;;;2.74;80.62;95711.28;4173183;28;20126;-68
2020/12/19 01:42:24;;;;;;;147.13;64.03;;;;;;;2.83;80.67;95713.34;4174573;28;20329;-69
2020/12/19 01:44:25;;;;;;;137.98;64.30;;;;;;;2.84;80.56;95715.03;4172107;28;20063;-69
2020/12/19 01:46:32;;;;;;;168.75;66.10;;;;;;;2.85;80.53;95719.28;4173084;28;20428;-70
2020/12/19 01:48:33;;;;;;;152.90;59.28;;;;;;;2.66;80.68;95730.66;4174636;28;20132;-69
2020/12/19 01:50:34;;;;;;;196.68;60.38;;;;;;;2.45;81.69;95724.94;4175466;28;20059;-69
2020/12/19 01:52:36;;;;;;;122.60;48.17;;;;;;;2.30;81.83;95730.09;4172508;28;20051;-68
2020/12/19 01:54:38;;;;;;;202.52;50.65;;;;;;;2.17;82.08;95723.03;4173821;28;20550;-68
2020/12/19 01:56:39;;;;;;;112.88;45.75;;;;;;;2.15;82.44;95731.75;4174125;28;20057;-69
2020/12/19 01:58:40;;;;;;;406.10;56.45;;;;;;;1.96;82.45;95725.00;4178124;28;20055;-67
2020/12/19 02:00:42;;;;;;;323.65;55.28;;;;;;;1.69;83.54;95727.28;4183284;28;20119;-69
2020/12/19 02:02:49;;;;;;;131.98;53.40;;;;;;;1.78;84.39;95731.13;4172762;28;20055;-69
2020/12/19 02:04:50;;;;;;;209.98;59.60;;;;;;;1.66;84.50;95729.19;4182298;28;20424;-68
2020/12/19 02:06:54;;;;;;;206.23;56.83;;;;;;;1.82;84.72;95732.63;4170395;28;20057;-69
2020/12/19 02:08:56;;;;;;;124.03;46.30;;;;;;;1.90;83.77;95720.16;4175633;28;20045;-69
2020/12/19 02:10:57;;;;;;;115.88;48.83;;;;;;;1.91;83.28;95726.97;4178607;28;20482;-71
2020/12/19 02:12:59;;;;;;;111.25;46.85;;;;;;;1.98;83.85;95722.31;4177530;28;20505;-72
2020/12/19 02:15:00;;;;;;;105.38;45.03;;;;;;;2.10;83.44;95726.00;4176346;28;20053;-77
2020/12/19 02:17:06;;;;;;;145.13;45.15;;;;;;;2.12;82.48;95729.34;4177033;28;20041;-78
2020/12/19 02:19:13;;;;;;;239.85;48.17;;;;;;;2.09;82.33;95727.78;4178202;28;20041;-77
2020/12/19 02:21:14;;;;;;;119.90;45.80;;;;;;;2.08;82.55;95713.16;4188360;28;20052;-78
2020/12/19 02:23:15;;;;;;;107.72;46.63;;;;;;;2.18;82.88;95716.94;4168313;28;20050;-77
2020/12/19 02:25:22;;;;;;;103.47;42.42;;;;;;;2.27;82.24;95713.00;4177883;28;20049;-78
2020/12/19 02:27:23;;;;;;;101.10;44.50;;;;;;;2.34;81.76;95713.50;4182528;28;20422;-76
2020/12/19 02:29:27;;;;;;;98.55;42.67;;;;;;;2.34;81.80;95714.31;4192007;28;20127;-79
2020/12/19 02:31:47;;;;;;;81.85;40.83;;;;;;;2.44;82.05;95709.50;4189195;28;20049;-76
2020/12/19 02:33:48;;;;;;;104.65;43.00;;;;;;;2.50;81.18;95714.34;4152449;28;20160;-76
2020/12/19 02:35:49;;;;;;;111.85;43.85;;;;;;;2.45;81.11;95716.31;4196030;28;20130;-77
2020/12/19 02:37:51;;;;;;;163.45;46.42;;;;;;;2.43;80.89;95713.84;4178675;28;20057;-76
2020/12/19 02:39:53;;;;;;;112.15;42.30;;;;;;;2.46;81.33;95712.84;4173197;28;20072;-76
2020/12/19 02:41:54;;;;;;;102.22;43.88;;;;;;;2.40;81.29;95708.00;4176241;28;20421;-77
2020/12/19 02:43:56;;;;;;;159.75;42.88;;;;;;;2.39;80.92;95712.34;4175719;28;20051;-76
2020/12/19 02:45:59;;;;;;;109.10;42.00;;;;;;;2.39;81.41;95714.09;4194396;28;20329;-76
2020/12/19 02:48:00;;;;;;;89.13;40.90;;;;;;;2.29;81.38;95712.94;4189664;28;20335;-77
2020/12/19 02:50:02;;;;;;;102.07;42.53;;;;;;;2.28;81.77;95709.53;4189281;28;20060;-76
2020/12/19 02:52:04;;;;;;;114.07;42.40;;;;;;;2.23;81.33;95709.75;4167253;28;20056;-77
2020/12/19 02:54:05;;;;;;;98.90;41.25;;;;;;;2.32;81.88;95707.56;4194216;28;20425;-77
2020/12/19 02:56:07;;;;;;;96.55;41.03;;;;;;;2.31;81.70;95706.75;4197812;28;20059;-76
2020/12/19 02:58:08;;;;;;;93.53;39.90;;;;;;;2.22;81.84;95700.34;4175394;28;20177;-77
2020/12/19 03:00:09;;;;;;;98.82;40.72;;;;;;;2.15;81.81;95705.91;4197589;28;20393;-77
2020/12/19 03:02:11;;;;;;;90.85;40.33;;;;;;;1.98;83.01;95707.66;4176254;28;20114;-77
2020/12/19 03:04:12;;;;;;;99.38;39.13;;;;;;;1.81;83.16;95707.72;4196493;28;20074;-69
2020/12/19 03:06:13;;;;;;;174.70;43.63;;;;;;;1.78;83.42;95708.72;4189207;28;20037;-68
2020/12/19 03:08:14;;;;;;;130.38;42.03;;;;;;;1.92;83.47;95710.56;4192098;28;20454;-77
2020/12/19 03:10:16;;;;;;;115.05;41.35;;;;;;;1.79;83.49;95707.81;4197642;28;20125;-80
2020/12/19 03:12:17;;;;;;;104.55;40.63;;;;;;;1.79;83.01;95709.56;4202956;28;20052;-76
2020/12/19 03:14:19;;;;;;;101.53;39.63;;;;;;;1.70;83.71;95708.28;4193345;28;20060;-77
2020/12/19 03:16:20;;;;;;;186.75;42.67;;;;;;;1.64;84.06;95716.38;4176906;28;20401;-77
2020/12/19 03:18:23;;;;;;;106.00;40.28;;;;;;;1.71;84.00;95709.94;4192680;28;20388;-77
2020/12/19 03:20:24;;;;;;;89.82;40.25;;;;;;;1.87;84.08;95715.13;4192174;28;20409;-77
2020/12/19 03:22:25;;;;;;;100.45;38.50;;;;;;;1.97;83.44;95708.56;4193659;28;20044;-80
2020/12/19 03:24:26;;;;;;;117.70;40.60;;;;;;;2.04;82.43;95712.50;4175919;28;20057;-76
2020/12/19 03:26:28;;;;;;;92.80;39.53;;;;;;;2.12;82.80;95711.25;4168709;28;20123;-78
2020/12/19 03:28:29;;;;;;;92.10;41.78;;;;;;;2.11;82.48;95712.16;4192863;28;20060;-77
2020/12/19 03:30:31;;;;;;;89.68;38.67;;;;;;;2.19;82.18;95710.00;4191559;28;20095;-77
2020/12/19 03:32:32;;;;;;;95.10;39.30;;;;;;;2.26;81.72;95703.59;4174708;28;20088;-76
2020/12/19 03:34:33;;;;;;;90.22;38.78;;;;;;;2.28;81.59;95709.53;4192550;28;20512;-69
2020/12/19 03:36:35;;;;;;;103.80;39.30;;;;;;;2.28;81.27;95709.53;4192699;28;20052;-68
2020/12/19 03:38:37;;;;;;;93.10;38.63;;;;;;;2.21;81.41;95716.75;4193418;28;20052;-69
2020/12/19 03:40:38;;;;;;;99.97;39.97;;;;;;;2.16;81.29;95711.00;4190921;28;20063;-71
2020/12/19 03:42:39;;;;;;;118.03;38.60;;;;;;;2.16;81.38;95720.53;4193893;28;20052;-68
2020/12/19 03:44:41;;;;;;;91.93;40.10;;;;;;;2.18;81.53;95706.59;4173524;28;20056;-68
2020/12/19 03:46:42;;;;;;;99.97;41.92;;;;;;;2.19;81.46;95710.00;4174981;28;20148;-68
2020/12/19 03:48:43;;;;;;;91.32;41.92;;;;;;;2.20;81.85;95712.50;4192286;28;20052;-69
2020/12/19 03:50:44;;;;;;;130.27;43.40;;;;;;;2.23;81.18;95711.50;4174858;28;20057;-68
2020/12/19 03:52:46;;;;;;;102.55;43.03;;;;;;;2.20;81.67;95719.44;4189423;28;20389;-68
2020/12/19 03:54:47;;;;;;;118.82;43.08;;;;;;;2.27;81.48;95715.59;4181647;28;20074;-68
2020/12/19 03:56:49;;;;;;;121.70;43.95;;;;;;;2.25;81.36;95714.84;4190995;28;20365;-68
2020/12/19 03:58:50;;;;;;;106.97;44.47;;;;;;;2.16;81.81;95715.34;4192593;28;20072;-69
2020/12/19 04:00:52;;;;;;;105.35;44.17;;;;;;;2.18;81.82;95718.69;4174959;28;20048;-68
2020/12/19 04:02:53;;;;;;;110.93;45.40;;;;;;;2.21;82.05;95716.75;4174084;28;20110;-69
2020/12/19 04:04:55;;;;;;;114.10;44.72;;;;;;;2.16;81.37;95720.53;4174819;28;20049;-76
2020/12/19 04:06:56;;;;;;;119.88;46.22;;;;;;;2.14;81.94;95722.34;4192833;28;20074;-78
2020/12/19 04:08:57;;;;;;;120.72;47.55;;;;;;;2.15;81.72;95724.00;4192423;28;20049;-76
2020/12/19 04:10:58;;;;;;;170.57;49.78;;;;;;;1.95;82.38;95723.31;4197758;28;20203;-77
2020/12/19 04:13:00;;;;;;;106.20;46.38;;;;;;;2.03;83.10;95725.50;4195055;28;20059;-76
2020/12/19 04:15:03;;;;;;;97.15;47.55;;;;;;;2.17;82.70;95727.34;4191388;28;20045;-76
2020/12/19 04:17:09;;;;;;;92.07;43.90;;;;;;;2.35;81.97;95730.69;4196409;28;20044;-77
2020/12/19 04:19:10;;;;;;;92.47;43.78;;;;;;;2.55;81.55;95727.00;4196680;28;20044;-77
2020/12/19 04:21:12;;;;;;;174.45;47.70;;;;;;;2.54;80.08;95727.91;4181853;28;20045;-76
2020/12/19 04:23:13;;;;;;;140.60;49.30;;;;;;;2.52;80.26;95734.91;4174620;28;20143;-79
2020/12/19 04:25:14;;;;;;;111.80;47.33;;;;;;;2.18;81.18;95732.44;4203664;28;20052;-78
2020/12/19 04:27:15;;;;;;;134.10;48.15;;;;;;;2.11;81.55;95730.25;4177607;28;20131;-76
2020/12/19 04:29:17;;;;;;;122.13;49.05;;;;;;;2.18;81.77;95729.84;4191338;28;20046;-77
2020/12/19 04:31:18;;;;;;;102.95;45.05;;;;;;;2.24;81.51;95729.53;4174438;28;20041;-77
2020/12/19 04:33:19;;;;;;;102.40;43.90;;;;;;;2.20;81.07;95725.44;4201919;28;20056;-76
2020/12/19 04:35:20;;;;;;;104.40;44.75;;;;;;;2.13;81.34;95725.84;4164254;28;20044;-76
2020/12/19 04:37:22;;;;;;;88.63;43.92;;;;;;;2.16;81.37;95734.28;4199658;28;20063;-77
2020/12/19 04:39:23;;;;;;;129.02;46.20;;;;;;;2.24;81.28;95728.69;4180944;28;20056;-77
2020/12/19 04:41:25;;;;;;;89.10;43.75;;;;;;;2.30;81.20;95730.09;4190197;28;20055;-78
2020/12/19 04:43:27;;;;;;;88.38;44.47;;;;;;;2.30;81.06;95730.94;4192077;28;20156;-77
2020/12/19 04:45:28;;;;;;;80.47;40.83;;;;;;;2.34;81.12;95724.66;4204244;28;20056;-76
2020/12/19 04:47:30;;;;;;;100.60;43.95;;;;;;;2.36;80.69;95727.19;4189120;28;20127;-76
2020/12/19 04:49:32;;;;;;;98.50;44.95;;;;;;;2.28;81.16;95725.03;4160110;28;20118;-77
2020/12/19 04:51:34;;;;;;;91.97;43.42;;;;;;;2.25;81.47;95727.75;4185327;28;20056;-78
2020/12/19 04:53:36;;;;;;;100.32;44.30;;;;;;;2.32;81.39;95725.69;4191705;28;20057;-76
2020/12/19 04:55:37;;;;;;;100.32;46.75;;;;;;;2.41;80.70;95725.16;4197273;28;20052;-78
2020/12/19 04:57:38;;;;;;;96.40;45.33;;;;;;;2.35;80.99;95722.94;4202924;28;20052;-76
2020/12/19 04:59:39;;;;;;;89.57;45.03;;;;;;;2.41;81.24;95727.75;4205668;28;20417;-76
2020/12/19 05:01:41;;;;;;;103.47;47.33;;;;;;;2.44;80.80;95727.59;4200379;28;20056;-78
2020/12/19 05:03:46;;;;;;;154.60;57.78;;;;;;;2.29;81.05;95734.44;4192900;28;20052;-76
2020/12/19 05:05:47;;;;;;;153.13;75.18;;;;;;;2.35;81.03;95736.69;4189862;28;20510;-77
2020/12/19 05:07:49;;;;;;;118.95;59.33;;;;;;;2.42;80.81;95738.03;4203174;28;20113;-79
2020/12/19 05:09:51;;;;;;;128.02;60.08;;;;;;;2.52;80.48;95743.53;4207244;28;20055;-77
2020/12/19 05:11:53;;;;;;;101.07;47.20;;;;;;;2.54;80.27;95748.59;4181589;28;20057;-77
2020/12/19 05:13:55;;;;;;;100.15;47.22;;;;;;;2.21;80.48;95747.78;4156731;28;20080;-76
2020/12/19 05:15:56;;;;;;;106.85;46.63;;;;;;;1.85;82.21;95748.00;4191764;28;20055;-76
2020/12/19 05:17:59;;;;;;;147.13;49.42;;;;;;;1.67;82.94;95751.53;4173592;28;20049;-76
2020/12/19 05:20:00;;;;;;;107.32;49.13;;;;;;;1.61;83.80;95743.19;4174109;28;20053;-76
2020/12/19 05:22:03;;;;;;;121.20;57.90;;;;;;;1.77;83.63;95750.97;4205259;28;20063;-77
2020/12/19 05:24:05;;;;;;;120.93;57.72;;;;;;;1.97;83.24;95749.91;4167278;28;20057;-79
2020/12/19 05:26:09;;;;;;;130.27;63.60;;;;;;;2.15;82.52;95747.28;4176248;28;20479;-76
2020/12/19 05:28:10;;;;;;;102.78;46.58;;;;;;;2.32;81.71;95742.03;4184001;28;20487;-77
2020/12/19 05:30:12;;;;;;;96.00;47.80;;;;;;;2.43;80.90;95751.78;4171476;28;20131;-77
2020/12/19 05:32:14;;;;;;;90.55;45.55;;;;;;;2.53;80.74;95745.19;4191263;28;20384;-77
2020/12/19 05:34:15;;;;;;;94.82;47.33;;;;;;;2.61;81.08;95740.44;4180400;28;20128;-76
2020/12/19 05:36:20;;;;;;;90.38;44.97;;;;;;;2.71;80.00;95748.53;4168389;28;20691;-78
2020/12/19 05:38:22;;;;;;;89.50;45.20;;;;;;;2.81;79.42;95754.00;4181438;28;20079;-77
2020/12/19 05:40:25;;;;;;;92.63;45.17;;;;;;;2.83;79.34;95741.81;4176993;28;20049;-77
2020/12/19 05:42:26;;;;;;;89.30;44.03;;;;;;;2.90;79.02;95744.91;4177782;28;20542;-78
2020/12/19 05:44:27;;;;;;;84.07;43.90;;;;;;;2.94;78.78;95743.81;4194431;28;20645;-77
2020/12/19 05:46:39;;;;;;;92.95;44.47;;;;;;;2.94;78.59;95746.41;4176769;28;20048;-78
2020/12/19 05:48:40;;;;;;;89.32;44.90;;;;;;;2.99;78.64;95754.72;4160996;28;20061;-78
2020/12/19 05:50:42;;;;;;;92.75;46.75;;;;;;;3.01;78.28;95752.88;4174836;28;20049;-77
2020/12/19 05:52:43;;;;;;;96.38;44.80;;;;;;;3.04;78.19;95750.13;4194042;28;20049;-77
2020/12/19 05:54:46;;;;;;;89.18;45.10;;;;;;;3.04;78.44;95752.72;4190326;28;20134;-79
2020/12/19 05:56:50;;;;;;;89.93;44.95;;;;;;;3.08;78.26;95757.63;4168689;28;20048;-78
2020/12/19 05:58:53;;;;;;;91.45;43.55;;;;;;;3.17;78.05;95758.03;4203538;28;20078;-78
2020/12/19 06:00:54;;;;;;;75.75;42.60;;;;;;;3.16;77.76;95759.81;4207175;28;20086;-77
2020/12/19 06:02:56;;;;;;;90.47;42.67;;;;;;;3.17;77.76;95765.81;4196362;28;20056;-77
2020/12/19 06:05:01;;;;;;;83.40;43.50;;;;;;;3.13;77.42;95762.53;4182075;28;20136;-77
2020/12/19 06:07:02;;;;;;;88.43;44.50;;;;;;;3.11;77.74;95769.56;4187783;28;20079;-80
2020/12/19 06:09:04;;;;;;;85.70;43.45;;;;;;;3.09;77.54;95776.59;4193602;28;20052;-76
2020/12/19 06:11:11;;;;;;;86.00;41.65;;;;;;;3.03;78.15;95761.41;4193655;28;20055;-78
2020/12/19 06:13:17;;;;;;;85.90;41.78;;;;;;;3.07;77.87;95770.66;4172612;28;20653;-77
2020/12/19 06:15:33;;;;;;;81.88;40.88;;;;;;;3.11;77.39;95772.16;4176955;28;20091;-78
2020/12/19 06:17:50;;;;;;;76.88;40.47;;;;;;;3.05;77.95;95773.34;4194022;28;20129;-79
2020/12/19 06:19:52;;;;;;;75.45;38.67;;;;;;;2.99;77.91;95773.69;4208929;28;20052;-77
2020/12/19 06:21:56;;;;;;;82.80;41.05;;;;;;;2.88;78.03;95778.63;4178839;28;20511;-77
2020/12/19 06:23:58;;;;;;;78.28;38.67;;;;;;;2.81;78.35;95783.31;4193943;28;20519;-78
2020/12/19 06:25:59;;;;;;;74.45;38.00;;;;;;;2.86;78.67;95780.47;4194265;28;20102;-78
2020/12/19 06:28:00;;;;;;;74.65;39.63;;;;;;;2.94;78.73;95777.44;4157839;28;20061;-77
2020/12/19 06:30:02;;;;;;;82.13;39.42;;;;;;;3.01;78.45;95779.63;4188027;28;20500;-70
2020/12/19 06:32:04;;;;;;;108.55;42.85;;;;;;;2.91;77.78;95783.66;4174678;28;20131;-69
2020/12/19 06:34:06;;;;;;;105.28;43.33;;;;;;;2.43;79.32;95785.41;4175085;28;20057;-69
2020/12/19 06:36:17;;;;;;;90.68;42.58;;;;;;;2.38;79.99;95793.41;4192339;28;20078;-69
2020/12/19 06:38:38;;;;;;;95.55;45.15;;;;;;;2.33;80.40;95784.25;4191262;28;20058;-68
2020/12/19 06:40:39;;;;;;;104.40;48.17;;;;;;;2.23;81.27;95787.31;4156679;28;20115;-70
2020/12/19 06:42:44;;;;;;;96.40;44.05;;;;;;;2.24;81.16;95785.56;4193723;28;20049;-70
2020/12/19 06:44:45;;;;;;;87.22;41.05;;;;;;;2.20;81.17;95784.06;4173815;28;20563;-69
2020/12/19 06:46:46;;;;;;;95.88;43.17;;;;;;;2.19;81.14;95782.38;4175472;28;20259;-70
2020/12/19 06:48:48;;;;;;;87.07;41.33;;;;;;;2.19;81.45;95788.38;4195416;28;20105;-70
2020/12/19 06:50:57;;;;;;;86.50;41.13;;;;;;;2.21;80.76;95785.72;4193776;28;20339;-70
2020/12/19 06:52:59;;;;;;;92.70;42.83;;;;;;;2.12;81.22;95781.88;4189846;28;20041;-70
2020/12/19 06:55:17;;;;;;;86.10;41.67;;;;;;;2.16;81.34;95793.72;4192328;28;20112;-72
2020/12/19 06:57:25;;;;;;;97.45;41.85;;;;;;;1.78;82.97;95793.13;4192164;28;20496;-69
2020/12/19 06:59:27;;;;;;;117.28;43.33;;;;;;;1.70;82.70;95792.69;4188784;28;20063;-69
2020/12/19 07:01:30;;;;;;;91.65;42.55;;;;;;;1.58;84.03;95797.56;4196686;28;20051;-70
2020/12/19 07:03:39;;;;;;;111.25;44.65;;;;;;;1.59;84.14;95801.84;4194961;28;20422;-70
2020/12/19 07:05:41;;;;;;;94.90;43.47;;;;;;;1.72;83.96;95796.88;4178264;28;20056;-70
2020/12/19 07:07:42;;;;;;;128.50;46.88;;;;;;;1.82;83.55;95805.81;4171857;28;20440;-70
2020/12/19 07:09:54;;;;;;;107.18;46.20;;;;;;;1.89;82.55;95803.75;4196391;28;20048;-69
2020/12/19 07:11:56;;;;;;;98.35;42.45;;;;;;;1.93;82.71;95796.69;4195341;28;20431;-69
2020/12/19 07:13:58;;;;;;;103.05;44.30;;;;;;;1.98;82.34;95792.94;4178051;28;20393;-69
2020/12/19 07:15:59;;;;;;;98.78;43.45;;;;;;;1.96;81.96;95797.38;4178678;28;20057;-68
2020/12/19 07:18:00;;;;;;;140.77;46.63;;;;;;;1.98;81.99;95800.72;4176561;28;20061;-69
2020/12/19 07:20:01;;;;;;;166.30;47.63;;;;;;;1.72;83.13;95807.22;4198176;28;20044;-69
2020/12/19 07:22:04;;;;;;;111.22;47.08;;;;;;;1.73;83.71;95813.22;4174526;28;20389;-69
2020/12/19 07:24:05;;;;;;;126.97;46.22;;;;;;;1.74;83.34;95809.69;4196462;28;20463;-70
2020/12/19 07:26:07;;;;;;;99.43;45.20;;;;;;;1.80;83.34;95809.41;4188530;28;20412;-70
2020/12/19 07:28:08;;;;;;;110.78;47.05;;;;;;;1.93;82.98;95807.84;4164976;28;20149;-68
2020/12/19 07:30:10;;;;;;;118.20;45.50;;;;;;;1.97;82.88;95803.34;4174438;28;20186;-71
2020/12/19 07:32:11;;;;;;;110.00;45.42;;;;;;;2.05;82.66;95807.22;4179134;28;20075;-70
2020/12/19 07:34:13;;;;;;;94.32;45.60;;;;;;;2.15;82.13;95804.13;4176310;28;20076;-72
2020/12/19 07:36:17;;;;;;;103.30;44.55;;;;;;;2.30;81.97;95805.91;4174349;28;20080;-71
2020/12/19 07:38:21;;;;;;;91.55;43.42;;;;;;;2.48;81.38;95798.13;4170329;28;20083;-70
2020/12/19 07:40:23;;;;;;;117.60;52.85;;;;;;;2.50;80.84;95804.88;4184526;28;20479;-71
2020/12/19 07:42:24;;;;;;;178.88;48.38;;;;;;;2.26;80.45;95801.84;4189539;28;20117;-68
2020/12/19 07:44:25;;;;;;;143.65;48.88;;;;;;;1.63;83.13;95811.09;4178245;28;20050;-68
2020/12/19 07:46:26;;;;;;;134.73;56.30;;;;;;;1.59;83.98;95812.16;4174824;28;20048;-69
2020/12/19 07:48:28;;;;;;;116.97;49.65;;;;;;;1.78;83.86;95808.63;4175178;28;20084;-71
2020/12/19 07:50:32;;;;;;;137.25;47.25;;;;;;;1.93;82.47;95813.00;4175518;28;20049;-70
2020/12/19 07:52:33;;;;;;;170.40;49.42;;;;;;;1.83;82.39;95804.91;4165691;28;20053;-69
2020/12/19 07:54:35;;;;;;;220.88;51.97;;;;;;;1.61;83.18;95810.34;4173378;28;20142;-70
2020/12/19 07:56:37;;;;;;;221.55;50.95;;;;;;;1.42;83.94;95812.19;4174628;28;20057;-71
2020/12/19 07:58:38;;;;;;;133.23;49.22;;;;;;;1.48;84.17;95811.84;4184599;28;20053;-69
2020/12/19 08:00:40;;;;;;;197.93;52.17;;;;;;;1.54;83.83;95810.72;4165500;28;20163;-73
2020/12/19 08:02:41;;;;;;;217.68;53.55;;;;;;;1.46;84.51;95810.25;4189983;28;20075;-69
2020/12/19 08:04:50;;;;;;;160.57;50.40;;;;;;;1.54;84.93;95811.53;4164877;28;20428;-70
2020/12/19 08:06:52;;;;;;;187.50;53.03;;;;;;;1.69;83.97;95815.09;4182558;28;20647;-70
2020/12/19 08:09:06;;;;;;;163.73;52.63;;;;;;;1.60;84.18;95811.25;4174992;28;20055;-70
2020/12/19 08:11:07;;;;;;;151.02;58.10;;;;;;;1.75;84.34;95811.38;4163304;28;20498;-70
2020/12/19 08:13:10;;;;;;;122.10;51.15;;;;;;;1.85;83.70;95810.00;4171858;28;20049;-70
2020/12/19 08:15:16;;;;;;;273.27;52.17;;;;;;;1.71;83.36;95810.69;4175655;28;20049;-67
2020/12/19 08:17:17;;;;;;;206.70;55.53;;;;;;;1.38;84.18;95815.81;4177586;28;20041;-70
2020/12/19 08:19:40;;;;;;;132.73;49.92;;;;;;;1.59;84.42;95809.59;4175978;28;20064;-70
2020/12/19 08:21:43;;;;;;;118.43;49.25;;;;;;;1.77;83.79;95822.47;4174301;28;20063;-70
2020/12/19 08:23:44;;;;;;;123.25;50.92;;;;;;;1.89;83.33;95815.84;4175906;28;20123;-69
2020/12/19 08:25:50;;;;;;;119.43;50.17;;;;;;;1.92;83.25;95820.88;4171617;28;20076;-70
2020/12/19 08:27:51;;;;;;;113.53;50.72;;;;;;;1.97;82.86;95819.69;4183397;28;20114;-70
2020/12/19 08:30:05;;;;;;;147.07;50.70;;;;;;;2.05;82.31;95822.72;4174829;28;20130;-72
2020/12/19 08:32:07;;;;;;;120.85;49.72;;;;;;;2.18;81.87;95824.69;4188723;28;20175;-69
2020/12/19 08:34:12;;;;;;;117.25;49.70;;;;;;;2.21;81.99;95820.16;4173518;28;20093;-69
2020/12/19 08:36:13;;;;;;;118.05;51.78;;;;;;;2.32;81.95;95817.00;4173761;28;20044;-73
2020/12/19 08:38:28;;;;;;;116.65;49.78;;;;;;;2.27;80.94;95821.59;4174296;28;20523;-77
2020/12/19 08:40:34;;;;;;;139.85;51.90;;;;;;;2.04;81.71;95821.06;4176478;28;20568;-78
2020/12/19 08:42:38;;;;;;;133.35;52.03;;;;;;;1.90;82.52;95820.09;4161926;28;20053;-81
2020/12/19 08:44:39;;;;;;;122.35;52.88;;;;;;;2.00;82.50;95823.88;4192386;28;20127;-78
2020/12/19 08:46:41;;;;;;;135.18;53.13;;;;;;;2.04;82.56;95815.03;4183235;28;20072;-80
2020/12/19 08:48:42;;;;;;;174.73;55.92;;;;;;;1.89;82.82;95816.66;4189629;28;20052;-70
2020/12/19 08:50:45;;;;;;;156.98;54.28;;;;;;;1.84;82.87;95816.91;4190780;28;20052;-69
2020/12/19 08:52:47;;;;;;;124.80;52.88;;;;;;;2.06;83.02;95818.38;4173407;28;20072;-68
2020/12/19 08:54:58;;;;;;;169.02;52.95;;;;;;;2.01;82.54;95815.22;4196353;28;20495;-70
2020/12/19 08:56:59;;;;;;;136.95;55.95;;;;;;;2.08;82.75;95811.38;4196610;28;20154;-69
2020/12/19 08:59:01;;;;;;;131.30;52.95;;;;;;;2.13;82.59;95803.38;4191381;28;20110;-70
2020/12/19 09:01:15;;;;;;;134.98;52.92;;;;;;;2.19;82.26;95797.91;4194263;28;20048;-70
2020/12/19 09:03:25;;;;;;;142.73;53.05;;;;;;;2.12;82.25;95799.16;4190510;28;20290;-70
2020/12/19 09:05:31;;;;;;;125.05;52.88;;;;;;;2.18;82.45;95796.25;4175252;28;20309;-68
2020/12/19 09:07:33;;;;;;;132.63;53.75;;;;;;;2.32;81.93;95791.16;4195063;28;20044;-72
2020/12/19 09:09:37;;;;;;;132.05;53.95;;;;;;;2.34;81.54;95786.72;4177587;28;20516;-71
2020/12/19 09:11:39;;;;;;;141.50;51.42;;;;;;;2.34;82.03;95786.72;4197592;28;20040;-70
2020/12/19 09:13:40;;;;;;;129.45;54.08;;;;;;;2.35;81.99;95783.25;4205111;28;20059;-69
2020/12/19 09:15:44;;;;;;;138.00;54.47;;;;;;;2.32;81.60;95779.97;4213687;28;20142;-70
2020/12/19 09:17:46;;;;;;;132.33;53.67;;;;;;;2.35;81.83;95780.66;4193798;28;20150;-70
2020/12/19 09:19:59;;;;;;;140.13;55.88;;;;;;;2.42;81.30;95784.56;4192462;28;20675;-71
2020/12/19 09:22:03;;;;;;;141.23;56.45;;;;;;;2.50;81.02;95778.16;4165762;28;20607;-69
2020/12/19 09:24:04;;;;;;;143.15;56.95;;;;;;;2.39;81.34;95776.16;4202498;28;20036;-71
2020/12/19 09:26:06;;;;;;;135.82;55.47;;;;;;;2.22;82.12;95764.97;4213780;28;20097;-68